createdAt,value
2019-05-20T00:01:22.590Z,15.59
2019-05-20T00:03:50.043Z,15.62
2019-05-20T00:06:17.508Z,15.65
2019-05-20T00:08:45.040Z,15.66
2019-05-20T00:11:12.609Z,15.72
2019-05-20T00:13:40.109Z,15.76
2019-05-20T00:16:07.591Z,15.78
2019-05-20T00:18:35.069Z,15.77
2019-05-20T00:21:02.546Z,15.75
2019-05-20T00:23:30.050Z,15.77
2019-05-20T00:25:57.618Z,15.67
2019-05-20T00:28:25.061Z,15.61
2019-05-20T00:30:52.564Z,15.64
2019-05-20T00:33:20.131Z,15.66
2019-05-20T00:35:47.610Z,15.67
2019-05-20T00:38:15.097Z,15.70
2019-05-20T00:40:42.559Z,15.73
2019-05-20T00:43:10.024Z,15.73
2019-05-20T00:45:37.526Z,15.68
2019-05-20T00:48:04.977Z,15.64
2019-05-20T00:50:32.485Z,15.62
2019-05-20T00:52:59.948Z,15.71
2019-05-20T00:55:28.205Z,15.61
2019-05-20T00:57:55.648Z,15.41
2019-05-20T01:00:23.185Z,15.31
2019-05-20T01:02:56.846Z,15.26
2019-05-20T01:05:18.189Z,15.30
2019-05-20T01:07:45.663Z,15.32
2019-05-20T01:10:13.139Z,15.30
2019-05-20T01:12:40.591Z,15.26
2019-05-20T01:15:08.130Z,15.17
2019-05-20T01:17:35.640Z,15.10
2019-05-20T01:20:03.142Z,15.07
2019-05-20T01:22:30.610Z,14.94
2019-05-20T01:24:58.106Z,14.86
2019-05-20T01:27:25.549Z,14.85
2019-05-20T01:29:53.035Z,14.89
2019-05-20T01:32:20.491Z,14.90
2019-05-20T01:34:47.986Z,14.94
2019-05-20T01:37:15.435Z,14.99
2019-05-20T01:39:42.933Z,15.05
2019-05-20T01:42:10.431Z,15.07
2019-05-20T01:44:37.958Z,15.08
2019-05-20T01:47:05.405Z,15.06
2019-05-20T01:49:32.902Z,15.06
2019-05-20T01:52:00.584Z,15.05
2019-05-20T01:54:28.052Z,15.03
2019-05-20T01:56:55.507Z,15.03
2019-05-20T01:59:22.991Z,15.06
2019-05-20T02:01:50.552Z,15.10
2019-05-20T02:04:18.050Z,15.11
2019-05-20T02:06:45.576Z,15.15
2019-05-20T02:09:13.013Z,15.18
2019-05-20T02:11:40.490Z,15.18
2019-05-20T02:14:24.823Z,15.17
2019-05-20T02:16:52.342Z,15.17
2019-05-20T02:19:19.875Z,15.19
2019-05-20T02:21:47.351Z,15.18
2019-05-20T02:24:14.836Z,15.11
2019-05-20T02:26:42.305Z,14.98
2019-05-20T02:29:09.843Z,14.98
2019-05-20T02:31:37.327Z,15.00
2019-05-20T02:34:04.841Z,15.04
2019-05-20T02:36:32.344Z,15.05
2019-05-20T02:38:59.810Z,15.08
2019-05-20T02:41:27.273Z,15.10
2019-05-20T02:43:54.800Z,15.14
2019-05-20T02:46:22.301Z,15.10
2019-05-20T02:48:49.811Z,15.09
2019-05-20T02:51:17.313Z,15.10
2019-05-20T02:53:44.887Z,15.08
2019-05-20T02:56:12.337Z,15.06
2019-05-20T02:58:39.890Z,15.06
2019-05-20T03:01:07.374Z,15.05
2019-05-20T03:03:35.594Z,14.98
2019-05-20T03:06:03.115Z,14.96
2019-05-20T03:08:30.561Z,15.01
2019-05-20T03:10:58.017Z,14.91
2019-05-20T03:13:25.941Z,14.92
2019-05-20T03:15:53.365Z,14.93
2019-05-20T03:18:20.854Z,14.94
2019-05-20T03:20:48.314Z,14.93
2019-05-20T03:23:15.920Z,14.93
2019-05-20T03:25:43.414Z,14.97
2019-05-20T03:28:10.894Z,15.02
2019-05-20T03:30:38.345Z,15.07
2019-05-20T03:33:05.848Z,15.06
2019-05-20T03:35:33.329Z,14.91
2019-05-20T03:38:00.812Z,14.72
2019-05-20T03:40:28.362Z,14.62
2019-05-20T03:42:55.815Z,14.69
2019-05-20T03:45:23.269Z,14.56
2019-05-20T03:47:50.745Z,14.54
2019-05-20T03:50:18.195Z,14.64
2019-05-20T03:52:45.858Z,14.77
2019-05-20T03:55:13.346Z,14.87
2019-05-20T03:57:40.841Z,14.91
2019-05-20T04:00:08.317Z,14.85
2019-05-20T04:02:35.817Z,14.79
2019-05-20T04:05:03.576Z,14.71
2019-05-20T04:07:30.791Z,14.76
2019-05-20T04:09:58.273Z,14.80
2019-05-20T04:12:25.929Z,14.82
2019-05-20T04:14:53.698Z,14.84
2019-05-20T04:17:21.153Z,14.72
2019-05-20T04:19:48.670Z,14.65
2019-05-20T04:22:16.372Z,14.64
2019-05-20T04:24:43.847Z,14.55
2019-05-20T04:27:11.316Z,14.35
2019-05-20T04:29:38.819Z,14.24
2019-05-20T04:32:06.311Z,14.33
2019-05-20T04:34:33.813Z,14.47
2019-05-20T04:37:01.258Z,14.57
2019-05-20T04:39:28.751Z,14.62
2019-05-20T04:41:56.251Z,14.66
2019-05-20T04:44:23.793Z,14.76
2019-05-20T04:46:51.386Z,14.83
2019-05-20T04:49:19.229Z,14.93
2019-05-20T04:51:46.792Z,14.97
2019-05-20T04:54:14.251Z,14.99
2019-05-20T04:56:41.843Z,15.01
2019-05-20T04:59:09.317Z,15.05
2019-05-20T05:01:36.856Z,14.97
2019-05-20T05:04:04.316Z,14.97
2019-05-20T05:06:31.805Z,14.98
2019-05-20T05:08:59.300Z,15.12
2019-05-20T05:11:26.788Z,15.25
2019-05-20T05:13:54.306Z,15.29
2019-05-20T05:16:21.889Z,15.28
2019-05-20T05:18:49.551Z,15.36
2019-05-20T05:21:17.059Z,15.41
2019-05-20T05:23:58.297Z,15.44
2019-05-20T05:26:12.132Z,15.41
2019-05-20T05:28:40.506Z,15.44
2019-05-20T05:31:07.989Z,15.47
2019-05-20T05:33:35.710Z,15.46
2019-05-20T05:36:03.267Z,15.49
2019-05-20T05:38:30.772Z,15.48
2019-05-20T05:40:58.363Z,15.50
2019-05-20T05:43:25.817Z,15.44
2019-05-20T05:45:53.413Z,15.37
2019-05-20T05:48:20.870Z,15.43
2019-05-20T05:50:48.359Z,15.45
2019-05-20T05:53:15.860Z,15.48
2019-05-20T05:55:44.229Z,15.52
2019-05-20T05:58:11.825Z,15.52
2019-05-20T06:00:39.313Z,15.50
2019-05-20T06:03:06.799Z,15.46
2019-05-20T06:05:34.327Z,15.43
2019-05-20T06:08:01.875Z,15.37
2019-05-20T06:10:29.324Z,15.35
2019-05-20T06:12:56.836Z,15.31
2019-05-20T06:15:24.644Z,15.26
2019-05-20T06:17:52.113Z,15.33
2019-05-20T06:20:19.587Z,15.38
2019-05-20T06:22:47.080Z,15.43
2019-05-20T06:25:14.685Z,15.40
2019-05-20T06:27:42.189Z,15.31
2019-05-20T06:30:09.785Z,15.24
2019-05-20T06:32:37.399Z,15.22
2019-05-20T06:35:06.663Z,15.11
2019-05-20T06:37:34.175Z,15.13
2019-05-20T06:40:01.668Z,15.25
2019-05-20T06:42:29.121Z,15.36
2019-05-20T06:44:57.392Z,15.39
2019-05-20T06:47:24.618Z,15.44
2019-05-20T06:49:52.430Z,15.45
2019-05-20T06:52:34.802Z,15.42
2019-05-20T06:54:48.099Z,15.43
2019-05-20T06:57:15.817Z,15.47
2019-05-20T06:59:43.302Z,15.50
2019-05-20T07:02:10.769Z,15.50
2019-05-20T07:04:38.273Z,15.45
2019-05-20T07:07:20.022Z,15.48
2019-05-20T07:09:33.322Z,15.54
2019-05-20T07:12:00.804Z,15.59
2019-05-20T07:14:28.300Z,15.64
2019-05-20T07:16:55.782Z,15.71
2019-05-20T07:19:23.268Z,15.74
2019-05-20T07:21:50.795Z,15.82
2019-05-20T07:24:18.297Z,15.96
2019-05-20T07:26:46.714Z,15.83
2019-05-20T07:29:14.385Z,15.76
2019-05-20T07:31:41.863Z,15.83
2019-05-20T07:34:09.431Z,15.89
2019-05-20T07:36:36.881Z,15.95
2019-05-20T07:39:04.636Z,15.99
2019-05-20T07:41:33.114Z,16.03
2019-05-20T07:44:00.669Z,16.09
2019-05-20T07:46:28.247Z,16.23
2019-05-20T07:48:55.754Z,16.22
2019-05-20T07:51:23.219Z,16.34
2019-05-20T07:53:50.822Z,16.37
2019-05-20T07:56:20.338Z,16.52
2019-05-20T07:58:48.040Z,16.66
2019-05-20T08:01:15.795Z,16.71
2019-05-20T08:03:43.262Z,16.78
2019-05-20T08:06:10.750Z,16.77
2019-05-20T08:08:38.349Z,16.47
2019-05-20T08:11:06.024Z,16.16
2019-05-20T08:13:33.580Z,16.12
2019-05-20T08:16:01.134Z,16.12
2019-05-20T08:18:28.816Z,16.18
2019-05-20T08:20:56.415Z,16.26
2019-05-20T08:23:23.917Z,16.47
2019-05-20T08:25:51.477Z,16.59
2019-05-20T08:28:19.046Z,16.70
2019-05-20T08:30:46.538Z,16.74
2019-05-20T08:33:13.998Z,16.85
2019-05-20T08:35:41.620Z,16.92
2019-05-20T08:38:09.105Z,17.10
2019-05-20T08:40:36.638Z,17.26
2019-05-20T08:43:03.751Z,17.36
2019-05-20T08:45:30.762Z,17.36
2019-05-20T08:47:57.800Z,17.37
2019-05-20T08:50:24.952Z,17.51
2019-05-20T08:52:51.998Z,17.54
2019-05-20T08:55:19.011Z,17.46
2019-05-20T08:57:46.347Z,17.53
2019-05-20T09:00:14.297Z,17.62
2019-05-20T09:02:41.314Z,17.60
2019-05-20T09:05:08.314Z,17.55
2019-05-20T09:07:35.300Z,17.32
2019-05-20T09:10:02.378Z,17.23
2019-05-20T09:12:30.671Z,17.28
2019-05-20T09:14:57.735Z,17.45
2019-05-20T09:17:24.736Z,17.54
2019-05-20T09:19:51.815Z,17.40
2019-05-20T09:22:19.289Z,17.26
2019-05-20T09:24:46.990Z,17.24
2019-05-20T09:27:14.374Z,17.18
2019-05-20T09:29:41.869Z,17.04
2019-05-20T09:32:09.417Z,17.00
2019-05-20T09:34:36.887Z,16.82
2019-05-20T09:37:04.706Z,16.78
2019-05-20T09:39:32.244Z,16.75
2019-05-20T09:41:59.759Z,16.59
2019-05-20T09:44:27.251Z,16.52
2019-05-20T09:46:54.707Z,16.53
2019-05-20T09:49:22.198Z,16.56
2019-05-20T09:51:49.682Z,16.57
2019-05-20T09:54:17.142Z,16.43
2019-05-20T09:56:44.732Z,16.42
2019-05-20T09:59:14.230Z,16.47
2019-05-20T10:01:40.444Z,16.54
2019-05-20T10:04:07.307Z,16.57
2019-05-20T10:06:34.765Z,16.58
2019-05-20T10:09:02.239Z,16.78
2019-05-20T10:11:30.035Z,16.95
2019-05-20T10:13:57.503Z,17.32
2019-05-20T10:16:25.794Z,17.46
2019-05-20T10:18:55.316Z,17.71
2019-05-20T10:21:20.471Z,17.69
2019-05-20T10:23:47.460Z,17.65
2019-05-20T10:26:14.480Z,17.75
2019-05-20T10:28:44.685Z,18.11
2019-05-20T10:31:08.699Z,18.17
2019-05-20T10:33:37.156Z,17.97
2019-05-20T10:36:03.786Z,17.91
2019-05-20T10:38:30.783Z,18.04
2019-05-20T10:40:57.932Z,18.06
2019-05-20T10:43:25.053Z,18.17
2019-05-20T10:45:52.277Z,18.40
2019-05-20T10:48:19.696Z,18.34
2019-05-20T10:50:46.729Z,18.04
2019-05-20T10:53:14.026Z,18.15
2019-05-20T10:55:41.138Z,18.25
2019-05-20T10:58:08.171Z,18.17
2019-05-20T11:00:35.175Z,18.16
2019-05-20T11:03:02.457Z,18.15
2019-05-20T11:05:29.338Z,18.05
2019-05-20T11:07:56.507Z,17.91
2019-05-20T11:10:23.571Z,17.83
2019-05-20T11:12:50.605Z,17.81
2019-05-20T11:15:17.682Z,17.72
2019-05-20T11:17:44.962Z,17.64
2019-05-20T11:20:12.022Z,17.61
2019-05-20T11:22:39.164Z,17.47
2019-05-20T11:25:07.442Z,17.07
2019-05-20T11:27:34.930Z,17.03
2019-05-20T11:30:07.223Z,17.01
2019-05-20T11:32:34.742Z,16.98
2019-05-20T11:35:02.627Z,16.98
2019-05-20T11:37:29.974Z,17.13
2019-05-20T11:39:57.466Z,17.26
2019-05-20T11:42:24.990Z,17.10
2019-05-20T11:44:52.446Z,17.11
2019-05-20T11:47:20.204Z,17.33
2019-05-20T11:49:47.685Z,17.57
2019-05-20T11:52:15.294Z,17.63
2019-05-20T11:54:42.788Z,17.52
2019-05-20T11:57:10.514Z,17.36
2019-05-20T11:59:38.264Z,17.40
2019-05-20T12:02:05.834Z,17.55
2019-05-20T12:04:33.511Z,17.67
2019-05-20T12:07:00.955Z,17.71
2019-05-20T12:09:28.479Z,17.57
2019-05-20T12:11:55.973Z,17.44
2019-05-20T12:14:23.475Z,17.37
2019-05-20T12:16:50.980Z,17.31
2019-05-20T12:19:18.455Z,17.20
2019-05-20T12:21:45.914Z,17.14
2019-05-20T12:24:13.385Z,17.11
2019-05-20T12:26:40.871Z,17.17
2019-05-20T12:29:08.343Z,17.14
2019-05-20T12:31:35.804Z,16.98
2019-05-20T12:34:03.337Z,17.08
2019-05-20T12:36:30.805Z,17.18
2019-05-20T12:38:58.250Z,17.11
2019-05-20T12:41:25.933Z,17.11
2019-05-20T12:44:10.868Z,17.07
2019-05-20T12:46:21.007Z,17.02
2019-05-20T12:48:48.779Z,17.03
2019-05-20T12:51:16.188Z,17.08
2019-05-20T12:53:43.684Z,17.19
2019-05-20T12:56:11.202Z,17.08
2019-05-20T12:58:38.697Z,17.13
2019-05-20T13:01:06.387Z,17.08
2019-05-20T13:03:33.990Z,17.09
2019-05-20T13:06:01.501Z,17.07
2019-05-20T13:08:29.005Z,17.17
2019-05-20T13:10:56.468Z,17.33
2019-05-20T13:13:23.995Z,17.39
2019-05-20T13:15:51.557Z,17.37
2019-05-20T13:18:18.972Z,17.59
2019-05-20T13:20:46.014Z,17.70
2019-05-20T13:23:15.265Z,17.58
2019-05-20T13:25:41.267Z,17.73
2019-05-20T13:28:08.818Z,17.70
2019-05-20T13:30:37.008Z,17.73
2019-05-20T13:33:05.443Z,17.67
2019-05-20T13:35:32.928Z,17.72
2019-05-20T13:38:00.440Z,17.82
2019-05-20T13:40:43.054Z,17.81
2019-05-20T13:42:54.516Z,17.59
2019-05-20T13:45:22.198Z,17.53
2019-05-20T13:47:49.804Z,17.48
2019-05-20T13:50:18.668Z,17.59
2019-05-20T13:52:46.180Z,17.47
2019-05-20T13:55:13.691Z,17.39
2019-05-20T13:57:42.369Z,17.48
2019-05-20T14:00:09.977Z,17.48
2019-05-20T14:02:36.991Z,17.58
2019-05-20T14:05:04.624Z,17.59
2019-05-20T14:07:32.122Z,17.58
2019-05-20T14:10:01.388Z,17.64
2019-05-20T14:12:28.866Z,17.62
2019-05-20T14:14:56.359Z,17.88
2019-05-20T14:17:23.899Z,18.15
2019-05-20T14:19:51.460Z,18.14
2019-05-20T14:22:18.994Z,18.21
2019-05-20T14:24:46.599Z,18.20
2019-05-20T14:27:14.703Z,18.19
2019-05-20T14:29:42.207Z,18.12
2019-05-20T14:32:09.373Z,18.30
2019-05-20T14:34:36.374Z,18.11
2019-05-20T14:37:03.984Z,18.13
2019-05-20T14:39:31.014Z,18.31
2019-05-20T14:41:58.026Z,18.40
2019-05-20T14:44:25.026Z,18.37
2019-05-20T14:46:52.032Z,18.42
2019-05-20T14:49:19.220Z,18.50
2019-05-20T14:51:46.629Z,18.61
2019-05-20T14:54:13.770Z,18.58
2019-05-20T14:56:41.237Z,18.57
2019-05-20T14:59:08.753Z,18.59
2019-05-20T15:01:36.355Z,18.59
2019-05-20T15:04:03.878Z,18.54
2019-05-20T15:06:31.466Z,18.41
2019-05-20T15:08:58.931Z,18.37
2019-05-20T15:11:37.831Z,18.21
2019-05-20T15:13:54.025Z,17.93
2019-05-20T15:16:21.746Z,17.84
2019-05-20T15:18:49.090Z,17.71
2019-05-20T15:21:16.693Z,17.58
2019-05-20T15:23:44.357Z,17.55
2019-05-20T15:26:12.178Z,17.51
2019-05-20T15:28:39.778Z,17.42
2019-05-20T15:31:07.326Z,17.14
2019-05-20T15:33:34.843Z,16.90
2019-05-20T15:36:02.489Z,16.78
2019-05-20T15:38:29.994Z,16.68
2019-05-20T15:40:57.588Z,16.51
2019-05-20T15:43:25.072Z,16.54
2019-05-20T15:45:52.672Z,16.56
2019-05-20T15:48:20.176Z,16.58
2019-05-20T15:50:47.657Z,16.62
2019-05-20T15:53:16.536Z,16.69
2019-05-20T15:55:43.996Z,16.74
2019-05-20T15:58:11.483Z,16.81
2019-05-20T16:00:38.976Z,17.00
2019-05-20T16:03:06.431Z,17.03
2019-05-20T16:05:34.108Z,17.00
2019-05-20T16:08:01.900Z,17.06
2019-05-20T16:10:29.115Z,17.11
2019-05-20T16:12:56.762Z,17.07
2019-05-20T16:15:25.139Z,17.05
2019-05-20T16:17:52.656Z,17.05
2019-05-20T16:20:20.203Z,17.18
2019-05-20T16:22:48.234Z,17.33
2019-05-20T16:25:15.823Z,17.38
2019-05-20T16:27:43.302Z,17.34
2019-05-20T16:30:10.986Z,17.38
2019-05-20T16:32:38.456Z,17.41
2019-05-20T16:35:05.988Z,17.48
2019-05-20T16:37:33.686Z,17.46
2019-05-20T16:40:01.310Z,17.40
2019-05-20T16:42:28.872Z,17.36
2019-05-20T16:44:56.434Z,17.33
2019-05-20T16:47:23.914Z,17.41
2019-05-20T16:49:51.690Z,17.50
2019-05-20T16:52:19.155Z,17.41
2019-05-20T16:54:46.630Z,17.31
2019-05-20T16:57:14.097Z,17.32
2019-05-20T16:59:41.771Z,17.38
2019-05-20T17:02:09.279Z,17.38
2019-05-20T17:04:36.760Z,17.38
2019-05-20T17:07:04.314Z,17.39
2019-05-20T17:09:31.843Z,17.39
2019-05-20T17:11:59.301Z,17.44
2019-05-20T17:14:27.067Z,17.40
2019-05-20T17:16:55.571Z,17.39
2019-05-20T17:19:23.222Z,17.41
2019-05-20T17:21:50.708Z,17.44
2019-05-20T17:24:18.271Z,17.46
2019-05-20T17:26:45.836Z,17.33
2019-05-20T17:29:13.420Z,17.07
2019-05-20T17:31:40.950Z,17.05
2019-05-20T17:34:08.451Z,17.04
2019-05-20T17:36:36.007Z,17.02
2019-05-20T17:39:03.507Z,16.99
2019-05-20T17:41:31.033Z,17.02
2019-05-20T17:43:58.654Z,17.09
2019-05-20T17:46:26.180Z,17.13
2019-05-20T17:48:53.682Z,17.18
2019-05-20T17:51:21.250Z,17.24
2019-05-20T17:53:48.796Z,17.19
2019-05-20T17:56:16.353Z,17.12
2019-05-20T17:58:43.874Z,17.00
2019-05-20T18:01:15.231Z,16.94
2019-05-20T18:03:38.947Z,16.90
2019-05-20T18:06:06.754Z,16.90
2019-05-20T18:08:34.304Z,16.97
2019-05-20T18:11:01.870Z,17.05
2019-05-20T18:13:29.549Z,17.09
2019-05-20T18:15:57.043Z,17.01
2019-05-20T18:18:24.508Z,16.84
2019-05-20T18:20:52.087Z,16.70
2019-05-20T18:23:19.712Z,16.60
2019-05-20T18:25:47.221Z,16.51
2019-05-20T18:28:14.704Z,16.57
2019-05-20T18:30:42.307Z,16.64
2019-05-20T18:33:09.776Z,16.65
2019-05-20T18:35:37.405Z,16.50
2019-05-20T18:38:04.888Z,16.43
2019-05-20T18:40:32.459Z,16.39
2019-05-20T18:43:00.081Z,16.31
2019-05-20T18:45:27.578Z,16.24
2019-05-20T18:47:55.687Z,16.17
2019-05-20T18:50:23.177Z,16.15
2019-05-20T18:52:50.648Z,16.10
2019-05-20T18:55:18.182Z,16.14
2019-05-20T18:57:45.634Z,16.14
2019-05-20T19:00:13.175Z,16.21
2019-05-20T19:02:40.646Z,16.26
2019-05-20T19:05:08.984Z,16.26
2019-05-20T19:07:37.135Z,16.31
2019-05-20T19:10:04.787Z,16.23
2019-05-20T19:12:32.295Z,16.23
2019-05-20T19:14:59.850Z,16.23
2019-05-20T19:17:27.521Z,16.24
2019-05-20T19:22:27.653Z,16.25
2019-05-20T19:24:55.139Z,16.23
2019-05-20T19:27:22.615Z,16.19
2019-05-20T19:29:50.415Z,16.21
2019-05-20T19:32:18.039Z,16.23
2019-05-20T19:34:45.591Z,16.27
2019-05-20T19:37:13.082Z,16.32
2019-05-20T19:39:40.552Z,16.32
2019-05-20T19:42:08.155Z,16.33
2019-05-20T19:44:36.154Z,16.29
2019-05-20T19:47:03.643Z,16.28
2019-05-20T19:49:31.136Z,16.22
2019-05-20T19:51:58.723Z,16.16
2019-05-20T19:54:26.202Z,16.17
2019-05-20T19:56:53.671Z,16.15
2019-05-20T19:59:21.271Z,16.17
2019-05-20T20:01:48.730Z,16.24
2019-05-20T20:04:16.236Z,16.26
2019-05-20T20:06:43.711Z,16.32
2019-05-20T20:09:11.231Z,16.35
2019-05-20T20:11:38.870Z,16.38
2019-05-20T20:14:06.352Z,16.38
2019-05-20T20:16:34.034Z,16.37
2019-05-20T20:19:01.068Z,16.30
2019-05-20T20:21:28.114Z,16.21
2019-05-20T20:23:57.218Z,16.19
2019-05-20T20:26:25.565Z,16.14
2019-05-20T20:28:53.119Z,16.03
2019-05-20T20:31:20.565Z,15.95
2019-05-20T20:33:48.023Z,15.95
2019-05-20T20:36:15.467Z,15.97
2019-05-20T20:38:42.991Z,16.03
2019-05-20T20:41:10.534Z,16.10
2019-05-20T20:43:38.028Z,16.12
2019-05-20T20:46:05.485Z,16.12
2019-05-20T20:48:32.510Z,16.11
2019-05-20T20:50:59.976Z,16.10
2019-05-20T20:53:27.025Z,16.10
2019-05-20T20:55:54.915Z,16.09
2019-05-20T20:58:21.957Z,16.01
2019-05-20T21:00:48.979Z,16.01
2019-05-20T21:03:15.979Z,15.98
2019-05-20T21:05:42.973Z,15.96
2019-05-20T21:08:10.465Z,15.90
2019-05-20T21:10:38.023Z,15.89
2019-05-20T21:13:05.608Z,15.83
2019-05-20T21:15:33.060Z,15.72
2019-05-20T21:18:00.536Z,15.70
2019-05-20T21:20:28.009Z,15.59
2019-05-20T21:22:55.482Z,15.56
2019-05-20T21:25:22.951Z,15.56
2019-05-20T21:27:50.462Z,15.49
2019-05-20T21:30:17.925Z,15.48
2019-05-20T21:32:45.433Z,15.43
2019-05-20T21:35:13.023Z,15.42
2019-05-20T21:37:40.489Z,15.42
2019-05-20T21:40:08.050Z,15.46
2019-05-20T21:42:35.579Z,15.48
2019-05-20T21:45:03.070Z,15.49
2019-05-20T21:47:30.614Z,15.45
2019-05-20T21:49:58.058Z,15.45
2019-05-20T21:52:25.535Z,15.39
2019-05-20T21:54:53.102Z,15.33
2019-05-20T21:57:21.441Z,15.22
2019-05-20T21:59:48.945Z,15.22
2019-05-20T22:02:16.548Z,15.16
2019-05-20T22:04:44.005Z,15.15
2019-05-20T22:07:11.562Z,15.22
2019-05-20T22:09:39.427Z,15.27
2019-05-20T22:12:06.881Z,15.31
2019-05-20T22:14:34.343Z,15.34
2019-05-20T22:17:01.809Z,15.29
2019-05-20T22:19:29.264Z,15.26
2019-05-20T22:21:56.781Z,15.21
2019-05-20T22:24:24.254Z,15.19
2019-05-20T22:26:51.758Z,15.18
2019-05-20T22:29:19.391Z,15.26
2019-05-20T22:31:46.382Z,15.31
2019-05-20T22:34:13.827Z,15.39
2019-05-20T22:36:41.281Z,15.44
2019-05-20T22:39:08.738Z,15.44
2019-05-20T22:41:36.221Z,15.35
2019-05-20T22:44:03.694Z,15.21
2019-05-20T22:46:31.221Z,15.12
2019-05-20T22:48:58.676Z,15.16
2019-05-20T22:51:26.123Z,15.19
2019-05-20T22:53:53.619Z,15.26
2019-05-20T22:56:21.100Z,15.28
2019-05-20T22:58:49.174Z,15.31
2019-05-20T23:01:16.722Z,15.28
2019-05-20T23:03:55.547Z,15.17
2019-05-20T23:06:11.792Z,15.07
2019-05-20T23:08:39.396Z,15.12
2019-05-20T23:11:06.876Z,15.20
2019-05-20T23:13:34.339Z,15.18
2019-05-20T23:16:01.916Z,15.20
2019-05-20T23:18:29.371Z,15.23
2019-05-20T23:20:56.840Z,15.19
2019-05-20T23:23:24.296Z,15.20
2019-05-20T23:25:52.915Z,15.22
2019-05-20T23:28:19.300Z,15.18
2019-05-20T23:30:46.763Z,15.19
2019-05-20T23:33:14.394Z,15.24
2019-05-20T23:35:41.851Z,15.19
2019-05-20T23:38:09.333Z,15.11
2019-05-20T23:40:36.836Z,15.03
2019-05-20T23:43:04.324Z,15.01
2019-05-20T23:45:31.798Z,15.05
2019-05-20T23:47:59.673Z,15.15
2019-05-20T23:50:27.212Z,15.17
2019-05-20T23:52:54.687Z,15.16
2019-05-20T23:55:22.180Z,15.18
2019-05-20T23:57:49.632Z,15.24
